createdAt,value
2022-10-19T00:01:20.606Z,19.03
2022-10-19T00:03:51.717Z,19.03
2022-10-19T00:06:25.689Z,19.00
2022-10-19T00:08:55.057Z,18.99
2022-10-19T00:11:24.051Z,19.03
2022-10-19T00:13:52.778Z,19.03
2022-10-19T00:16:21.954Z,19.04
2022-10-19T00:18:51.912Z,19.09
2022-10-19T00:21:21.371Z,19.13
2022-10-19T00:23:49.966Z,19.16
2022-10-19T00:26:18.206Z,19.19
2022-10-19T00:28:46.990Z,19.16
2022-10-19T00:31:17.537Z,19.08
2022-10-19T00:33:47.555Z,19.08
2022-10-19T00:36:22.527Z,19.04
2022-10-19T00:38:51.804Z,19.00
2022-10-19T00:41:21.485Z,19.09
2022-10-19T00:43:56.022Z,19.14
2022-10-19T00:46:24.903Z,19.11
2022-10-19T00:49:01.703Z,19.18
2022-10-19T00:51:34.354Z,19.18
2022-10-19T00:54:05.362Z,19.16
2022-10-19T00:56:34.827Z,19.08
2022-10-19T00:59:05.057Z,19.07
2022-10-19T01:01:34.953Z,19.15
2022-10-19T01:04:04.487Z,19.16
2022-10-19T01:06:35.246Z,19.15
2022-10-19T01:09:03.490Z,19.15
2022-10-19T01:11:43.635Z,19.08
2022-10-19T01:14:27.990Z,19.19
2022-10-19T01:17:06.967Z,19.16
2022-10-19T01:20:25.166Z,19.12
2022-10-19T01:23:06.937Z,19.13
2022-10-19T01:25:51.082Z,19.05
2022-10-19T01:28:34.449Z,19.14
2022-10-19T01:31:09.978Z,19.14
2022-10-19T01:33:48.771Z,19.17
2022-10-19T01:36:24.483Z,19.17
2022-10-19T01:38:59.205Z,19.16
2022-10-19T01:41:34.854Z,19.16
2022-10-19T01:44:12.493Z,19.14
2022-10-19T01:46:45.006Z,19.14
2022-10-19T01:49:18.311Z,19.13
2022-10-19T01:51:51.433Z,19.14
2022-10-19T01:54:23.251Z,19.09
2022-10-19T01:56:55.560Z,19.10
2022-10-19T01:59:24.794Z,19.07
2022-10-19T02:01:56.907Z,19.06
2022-10-19T02:04:26.929Z,19.02
2022-10-19T02:06:56.635Z,19.03
2022-10-19T02:09:24.891Z,18.98
2022-10-19T02:11:57.350Z,18.94
2022-10-19T02:14:30.208Z,18.89
2022-10-19T02:17:04.176Z,18.84
2022-10-19T02:19:32.537Z,18.83
2022-10-19T02:22:01.071Z,18.86
2022-10-19T02:24:29.535Z,18.88
2022-10-19T02:26:58.076Z,18.90
2022-10-19T02:29:26.293Z,18.90
2022-10-19T02:31:55.158Z,18.91
2022-10-19T02:34:25.138Z,18.93
2022-10-19T02:36:53.693Z,18.92
2022-10-19T02:39:22.581Z,18.89
2022-10-19T02:41:55.885Z,18.86
2022-10-19T02:44:28.831Z,18.86
2022-10-19T02:47:02.055Z,18.86
2022-10-19T02:49:35.745Z,18.86
2022-10-19T02:52:06.227Z,18.85
2022-10-19T02:54:35.255Z,18.86
2022-10-19T02:57:05.348Z,18.86
2022-10-19T02:59:34.047Z,18.86
2022-10-19T03:02:02.195Z,18.89
2022-10-19T03:04:32.175Z,18.88
2022-10-19T03:07:00.613Z,18.85
2022-10-19T03:09:28.894Z,18.85
2022-10-19T03:11:57.706Z,18.84
2022-10-19T03:14:26.090Z,18.80
2022-10-19T03:16:54.598Z,18.74
2022-10-19T03:19:22.994Z,18.79
2022-10-19T03:21:53.138Z,18.80
2022-10-19T03:24:21.530Z,18.79
2022-10-19T03:26:49.778Z,18.80
2022-10-19T03:29:18.195Z,18.77
2022-10-19T03:31:46.591Z,18.77
2022-10-19T03:34:14.814Z,18.74
2022-10-19T03:36:43.290Z,18.70
2022-10-19T03:39:16.324Z,18.78
2022-10-19T03:41:44.888Z,18.80
2022-10-19T03:44:13.799Z,18.87
2022-10-19T03:46:42.449Z,18.90
2022-10-19T03:49:11.260Z,18.88
2022-10-19T03:51:39.829Z,18.84
2022-10-19T03:54:10.171Z,18.79
2022-10-19T03:56:40.459Z,18.79
2022-10-19T03:59:09.023Z,18.70
2022-10-19T04:01:39.898Z,18.67
2022-10-19T04:04:11.128Z,18.71
2022-10-19T04:06:41.256Z,18.67
2022-10-19T04:09:13.574Z,18.70
2022-10-19T04:11:43.703Z,18.59
2022-10-19T04:14:19.332Z,18.67
2022-10-19T04:16:55.874Z,18.69
2022-10-19T04:19:24.056Z,18.69
2022-10-19T04:21:52.275Z,18.69
2022-10-19T04:24:21.021Z,18.67
2022-10-19T04:26:52.373Z,18.66
2022-10-19T04:29:25.020Z,18.63
2022-10-19T04:31:56.130Z,18.57
2022-10-19T04:34:24.456Z,18.54
2022-10-19T04:36:53.790Z,18.50
2022-10-19T04:39:22.211Z,18.45
2022-10-19T04:41:52.313Z,18.42
2022-10-19T04:44:21.209Z,18.38
2022-10-19T04:46:50.295Z,18.39
2022-10-19T04:49:20.249Z,18.37
2022-10-19T04:51:48.584Z,18.36
2022-10-19T04:54:17.259Z,18.34
2022-10-19T04:56:45.461Z,18.34
2022-10-19T04:59:15.503Z,18.35
2022-10-19T05:01:46.347Z,18.35
2022-10-19T05:04:15.924Z,18.36
2022-10-19T05:06:44.494Z,18.36
2022-10-19T05:09:13.139Z,18.35
2022-10-19T05:11:41.262Z,18.36
2022-10-19T05:14:09.824Z,18.35
2022-10-19T05:16:39.447Z,18.35
2022-10-19T05:19:07.880Z,18.32
2022-10-19T05:21:36.110Z,18.31
2022-10-19T05:24:04.391Z,18.28
2022-10-19T05:26:32.809Z,18.26
2022-10-19T05:29:04.560Z,18.24
2022-10-19T05:31:34.802Z,18.21
2022-10-19T05:34:05.141Z,18.21
2022-10-19T05:36:35.503Z,18.19
2022-10-19T05:39:07.006Z,18.18
2022-10-19T05:41:36.243Z,18.06
2022-10-19T05:44:06.087Z,18.07
2022-10-19T05:46:35.292Z,18.06
2022-10-19T05:49:05.097Z,17.98
2022-10-19T05:51:33.308Z,17.98
2022-10-19T05:54:01.915Z,17.98
2022-10-19T05:56:32.084Z,17.99
2022-10-19T05:59:02.123Z,17.95
2022-10-19T06:01:31.421Z,17.91
2022-10-19T06:04:01.067Z,17.90
2022-10-19T06:06:32.072Z,17.91
2022-10-19T06:09:01.597Z,17.86
2022-10-19T06:11:30.974Z,17.84
2022-10-19T06:14:00.940Z,17.80
2022-10-19T06:16:30.517Z,17.75
2022-10-19T06:18:59.704Z,17.70
2022-10-19T06:21:30.846Z,17.64
2022-10-19T06:24:00.919Z,17.54
2022-10-19T06:26:30.577Z,17.50
2022-10-19T06:29:00.671Z,17.53
2022-10-19T06:31:29.322Z,17.48
2022-10-19T06:33:57.718Z,17.46
2022-10-19T06:36:27.837Z,17.32
2022-10-19T06:38:59.786Z,17.36
2022-10-19T06:41:28.786Z,17.39
2022-10-19T06:43:57.589Z,17.48
2022-10-19T06:46:27.231Z,17.44
2022-10-19T06:48:57.014Z,17.44
2022-10-19T06:51:26.602Z,17.45
2022-10-19T06:53:57.148Z,17.46
2022-10-19T06:56:28.204Z,17.44
2022-10-19T06:58:57.043Z,17.52
2022-10-19T07:01:26.380Z,17.50
2022-10-19T07:03:55.354Z,17.52
2022-10-19T07:06:24.432Z,17.61
2022-10-19T07:08:54.180Z,17.69
2022-10-19T07:11:23.477Z,17.70
2022-10-19T07:13:54.353Z,17.70
2022-10-19T07:16:22.894Z,17.67
2022-10-19T07:18:52.577Z,17.71
2022-10-19T07:21:23.126Z,17.65
2022-10-19T07:23:51.986Z,17.66
2022-10-19T07:26:23.859Z,17.56
2022-10-19T07:28:54.937Z,17.50
2022-10-19T07:31:25.987Z,17.50
2022-10-19T07:33:55.052Z,17.56
2022-10-19T07:36:25.711Z,17.56
2022-10-19T07:38:54.641Z,17.55
2022-10-19T07:41:26.123Z,17.56
2022-10-19T07:43:57.982Z,17.63
2022-10-19T07:46:29.179Z,17.66
2022-10-19T07:48:57.954Z,17.75
2022-10-19T07:51:26.617Z,17.79
2022-10-19T07:53:55.200Z,17.84
2022-10-19T07:56:24.882Z,17.94
2022-10-19T07:58:56.897Z,17.88
2022-10-19T08:01:27.705Z,17.84
2022-10-19T08:04:48.681Z,17.90
2022-10-19T08:06:45.790Z,17.94
2022-10-19T08:09:33.359Z,18.00
2022-10-19T08:12:02.164Z,17.97
2022-10-19T08:14:32.335Z,18.01
2022-10-19T08:17:01.456Z,18.09
2022-10-19T08:19:29.652Z,18.13
2022-10-19T08:21:58.093Z,18.21
2022-10-19T08:24:26.280Z,18.19
2022-10-19T08:26:54.814Z,18.21
2022-10-19T08:29:25.537Z,18.19
2022-10-19T08:31:58.082Z,18.30
2022-10-19T08:34:26.907Z,18.28
2022-10-19T08:36:55.196Z,18.22
2022-10-19T08:39:24.231Z,18.23
2022-10-19T08:42:02.667Z,18.24
2022-10-19T08:45:02.171Z,18.29
2022-10-19T08:47:48.193Z,18.51
2022-10-19T08:50:20.394Z,18.99
2022-10-19T08:52:51.313Z,19.64
2022-10-19T08:55:28.732Z,20.16
2022-10-19T08:58:05.254Z,20.68
2022-10-19T09:00:43.019Z,21.19
2022-10-19T09:03:31.953Z,20.89
2022-10-19T09:06:20.523Z,20.40
2022-10-19T09:08:51.699Z,20.83
2022-10-19T09:11:25.965Z,21.36
2022-10-19T09:14:05.905Z,21.49
2022-10-19T09:16:36.317Z,22.15
2022-10-19T09:19:14.920Z,22.60
2022-10-19T09:21:48.711Z,23.02
2022-10-19T09:24:28.923Z,23.21
2022-10-19T09:26:59.990Z,23.29
2022-10-19T09:29:37.545Z,22.57
2022-10-19T09:32:11.337Z,22.34
2022-10-19T09:34:45.626Z,22.09
2022-10-19T09:37:23.331Z,22.22
2022-10-19T09:39:55.495Z,22.01
2022-10-19T09:42:29.437Z,22.30
2022-10-19T09:44:59.907Z,22.74
2022-10-19T09:47:34.910Z,22.85
2022-10-19T09:50:21.185Z,23.13
2022-10-19T09:52:50.276Z,23.25
2022-10-19T09:55:29.586Z,23.03
2022-10-19T09:58:03.262Z,22.86
2022-10-19T10:00:37.926Z,22.69
2022-10-19T10:03:08.154Z,22.39
2022-10-19T10:05:40.354Z,22.51
2022-10-19T10:08:15.503Z,22.37
2022-10-19T10:10:47.185Z,22.26
2022-10-19T10:13:19.218Z,22.29
2022-10-19T10:15:49.521Z,21.96
2022-10-19T10:18:19.922Z,21.83
2022-10-19T10:21:01.262Z,21.70
2022-10-19T10:23:32.384Z,21.44
2022-10-19T10:26:03.212Z,21.15
2022-10-19T10:28:32.524Z,21.10
2022-10-19T10:31:04.404Z,20.93
2022-10-19T10:33:45.324Z,20.98
2022-10-19T10:36:15.953Z,21.06
2022-10-19T10:38:48.565Z,21.20
2022-10-19T10:41:20.273Z,21.09
2022-10-19T10:43:57.601Z,21.22
2022-10-19T10:46:34.676Z,21.21
2022-10-19T10:49:05.690Z,21.19
2022-10-19T10:51:40.298Z,21.13
2022-10-19T10:54:17.374Z,20.93
2022-10-19T10:56:56.374Z,21.00
2022-10-19T10:59:29.231Z,21.05
2022-10-19T11:02:03.232Z,21.03
2022-10-19T11:04:37.951Z,21.10
2022-10-19T11:07:18.944Z,21.15
2022-10-19T11:09:52.846Z,21.25
2022-10-19T11:12:35.197Z,21.59
2022-10-19T11:15:12.006Z,21.82
2022-10-19T11:17:48.170Z,21.88
2022-10-19T11:20:17.844Z,21.81
2022-10-19T11:22:54.468Z,21.86
2022-10-19T11:25:34.838Z,22.00
2022-10-19T11:28:18.596Z,22.06
2022-10-19T11:30:56.689Z,22.12
2022-10-19T11:33:49.410Z,22.29
2022-10-19T11:36:36.605Z,22.44
2022-10-19T11:39:25.681Z,22.43
2022-10-19T11:42:04.218Z,22.45
2022-10-19T11:44:43.465Z,22.19
2022-10-19T11:47:36.544Z,22.04
2022-10-19T11:50:32.113Z,22.01
2022-10-19T11:53:11.247Z,21.99
2022-10-19T11:55:47.492Z,21.91
2022-10-19T11:58:36.231Z,22.00
2022-10-19T12:01:15.472Z,22.09
2022-10-19T12:04:12.970Z,22.20
2022-10-19T12:06:47.027Z,22.21
2022-10-19T12:09:28.316Z,22.30
2022-10-19T12:12:08.613Z,22.43
2022-10-19T12:14:41.760Z,22.45
2022-10-19T12:17:15.626Z,22.57
2022-10-19T12:19:48.227Z,22.80
2022-10-19T12:22:21.046Z,22.91
2022-10-19T12:24:50.942Z,23.05
2022-10-19T12:27:31.307Z,23.25
2022-10-19T12:30:05.574Z,23.01
2022-10-19T12:32:44.857Z,23.02
2022-10-19T12:35:27.869Z,22.81
2022-10-19T12:38:01.433Z,22.73
2022-10-19T12:40:37.073Z,22.83
2022-10-19T12:43:17.979Z,22.61
2022-10-19T12:45:53.248Z,22.67
2022-10-19T12:48:24.669Z,22.53
2022-10-19T12:51:05.566Z,22.54
2022-10-19T12:53:38.239Z,22.50
2022-10-19T12:56:09.818Z,22.41
2022-10-19T12:58:48.251Z,22.34
2022-10-19T13:01:20.959Z,22.36
2022-10-19T13:03:52.415Z,22.43
2022-10-19T13:06:33.272Z,22.40
2022-10-19T13:09:05.543Z,22.46
2022-10-19T13:14:44.518Z,22.48
2022-10-19T13:17:41.580Z,22.52
2022-10-19T13:20:47.169Z,21.99
2022-10-19T13:23:42.209Z,22.07
2022-10-19T13:26:34.050Z,22.07
2022-10-19T13:29:03.593Z,21.89
2022-10-19T13:31:37.102Z,21.79
2022-10-19T13:34:11.612Z,21.73
2022-10-19T13:36:40.483Z,21.75
2022-10-19T13:39:17.036Z,21.76
2022-10-19T13:41:54.656Z,21.59
2022-10-19T13:44:33.923Z,21.42
2022-10-19T13:47:25.371Z,21.38
2022-10-19T13:50:20.697Z,21.26
2022-10-19T13:53:10.832Z,21.10
2022-10-19T13:56:04.099Z,21.11
2022-10-19T13:58:59.726Z,21.12
2022-10-19T14:01:40.731Z,20.97
2022-10-19T14:04:22.867Z,20.90
2022-10-19T14:06:55.812Z,20.75
2022-10-19T14:09:52.130Z,20.81
2022-10-19T14:12:25.630Z,20.77
2022-10-19T14:14:54.600Z,20.92
2022-10-19T14:17:27.450Z,20.97
2022-10-19T14:19:59.276Z,21.02
2022-10-19T14:22:31.093Z,20.94
2022-10-19T14:25:04.791Z,20.89
2022-10-19T14:27:33.640Z,20.87
2022-10-19T14:30:02.609Z,20.88
2022-10-19T14:32:33.613Z,20.78
2022-10-19T14:35:07.752Z,20.69
2022-10-19T14:37:38.529Z,20.62
2022-10-19T14:40:26.603Z,20.54
2022-10-19T14:42:57.382Z,20.43
2022-10-19T14:45:27.332Z,20.30
2022-10-19T14:47:58.727Z,20.41
2022-10-19T14:50:39.706Z,20.50
2022-10-19T14:53:20.742Z,20.37
2022-10-19T14:55:51.801Z,20.33
2022-10-19T14:58:23.535Z,20.48
2022-10-19T15:00:54.693Z,20.59
2022-10-19T15:03:26.871Z,20.50
2022-10-19T15:05:58.315Z,20.42
2022-10-19T15:08:35.278Z,20.37
2022-10-19T15:11:03.910Z,20.39
2022-10-19T15:13:37.578Z,20.47
2022-10-19T15:16:06.050Z,20.48
2022-10-19T15:18:49.541Z,20.44
2022-10-19T15:21:22.125Z,20.48
2022-10-19T15:23:50.909Z,20.22
2022-10-19T15:26:22.399Z,20.17
2022-10-19T15:28:51.042Z,20.07
2022-10-19T15:31:21.615Z,20.18
2022-10-19T15:33:52.438Z,20.13
2022-10-19T15:36:24.420Z,20.20
2022-10-19T15:39:17.525Z,20.12
2022-10-19T15:41:51.898Z,20.05
2022-10-19T15:44:33.775Z,20.00
2022-10-19T15:47:24.134Z,19.93
2022-10-19T15:49:59.340Z,20.00
2022-10-19T15:52:31.537Z,19.76
2022-10-19T15:55:01.261Z,19.75
2022-10-19T15:57:32.634Z,19.77
2022-10-19T16:00:08.513Z,19.70
2022-10-19T16:02:37.066Z,19.58
2022-10-19T16:07:39.408Z,19.57
2022-10-19T16:10:10.049Z,19.55
2022-10-19T16:12:39.267Z,19.43
2022-10-19T16:15:08.546Z,19.42
2022-10-19T16:17:37.350Z,19.30
2022-10-19T16:20:06.893Z,19.35
2022-10-19T16:22:36.896Z,19.41
2022-10-19T16:25:05.827Z,19.32
2022-10-19T16:27:35.352Z,19.36
2022-10-19T16:30:06.208Z,19.29
2022-10-19T16:32:36.245Z,19.30
2022-10-19T16:35:08.384Z,19.32
2022-10-19T16:37:38.463Z,19.18
2022-10-19T16:40:08.372Z,19.13
2022-10-19T16:42:37.615Z,19.22
2022-10-19T16:45:06.886Z,19.21
2022-10-19T16:47:35.674Z,19.25
2022-10-19T16:50:06.592Z,19.14
2022-10-19T16:52:35.515Z,19.17
2022-10-19T16:55:05.795Z,19.08
2022-10-19T16:57:34.484Z,19.04
2022-10-19T17:00:03.175Z,19.05
2022-10-19T17:02:31.924Z,18.94
2022-10-19T17:05:00.348Z,18.96
2022-10-19T17:07:28.635Z,18.94
2022-10-19T17:09:57.551Z,18.78
2022-10-19T17:12:27.286Z,18.76
2022-10-19T17:15:11.586Z,18.76
2022-10-19T17:17:45.296Z,18.66
2022-10-19T17:20:13.930Z,18.67
2022-10-19T17:22:42.170Z,18.55
2022-10-19T17:25:11.519Z,18.48
2022-10-19T17:27:41.450Z,18.38
2022-10-19T17:30:11.455Z,18.35
2022-10-19T17:32:39.739Z,18.27
2022-10-19T17:35:09.354Z,18.26
2022-10-19T17:37:38.334Z,18.15
2022-10-19T17:40:08.024Z,18.20
2022-10-19T17:42:36.822Z,18.19
2022-10-19T17:45:07.079Z,18.13
2022-10-19T17:47:35.896Z,18.10
2022-10-19T17:50:04.392Z,18.06
2022-10-19T17:52:32.918Z,17.99
2022-10-19T17:55:11.547Z,17.97
2022-10-19T17:57:40.660Z,17.96
2022-10-19T18:00:11.252Z,17.94
2022-10-19T18:02:45.860Z,17.89
2022-10-19T18:05:14.527Z,17.75
2022-10-19T18:07:45.613Z,17.80
2022-10-19T18:10:15.505Z,17.75
2022-10-19T18:12:44.055Z,17.76
2022-10-19T18:15:14.046Z,17.78
2022-10-19T18:17:42.603Z,17.79
2022-10-19T18:20:12.074Z,17.75
2022-10-19T18:25:18.796Z,17.68
2022-10-19T18:27:50.166Z,17.61
2022-10-19T18:30:20.291Z,17.64
2022-10-19T18:32:52.019Z,17.58
2022-10-19T18:35:21.783Z,17.53
2022-10-19T18:37:49.944Z,17.48
2022-10-19T18:40:18.538Z,17.50
2022-10-19T18:42:47.005Z,17.47
2022-10-19T18:45:15.291Z,17.43
2022-10-19T18:47:44.902Z,17.45
2022-10-19T18:52:43.879Z,17.44
2022-10-19T18:55:12.095Z,17.42
2022-10-19T18:57:40.598Z,17.36
2022-10-19T19:00:10.991Z,17.36
2022-10-19T19:02:46.783Z,17.33
2022-10-19T19:05:16.955Z,17.30
2022-10-19T19:07:45.315Z,17.28
2022-10-19T19:10:14.529Z,17.23
2022-10-19T19:12:44.112Z,17.21
2022-10-19T19:15:12.893Z,17.18
2022-10-19T19:17:41.139Z,17.18
2022-10-19T19:20:09.921Z,17.16
2022-10-19T19:22:39.511Z,17.16
2022-10-19T19:25:08.682Z,17.19
2022-10-19T19:30:11.422Z,17.18
2022-10-19T19:32:40.154Z,17.18
2022-10-19T19:35:08.699Z,17.18
2022-10-19T19:37:37.541Z,17.15
2022-10-19T19:40:08.652Z,17.11
2022-10-19T19:42:36.848Z,17.02
2022-10-19T19:45:06.075Z,17.03
2022-10-19T19:47:34.559Z,16.99
2022-10-19T19:50:03.002Z,17.02
2022-10-19T19:52:34.888Z,16.98
2022-10-19T19:55:08.203Z,16.92
2022-10-19T19:57:36.821Z,16.99
2022-10-19T20:00:06.138Z,17.02
2022-10-19T20:02:39.679Z,17.00
2022-10-19T20:05:08.534Z,16.97
2022-10-19T20:07:37.316Z,16.98
2022-10-19T20:10:08.220Z,17.04
2022-10-19T20:12:36.607Z,16.96
2022-10-19T20:15:05.042Z,16.94
2022-10-19T20:17:33.451Z,16.88
2022-10-19T20:20:01.689Z,16.88
2022-10-19T20:22:29.864Z,16.97
2022-10-19T20:24:57.892Z,16.98
2022-10-19T20:27:27.880Z,17.01
2022-10-19T20:29:58.556Z,16.87
2022-10-19T20:32:27.182Z,16.84
2022-10-19T20:34:55.701Z,16.89
2022-10-19T20:37:24.323Z,16.87
2022-10-19T20:39:52.485Z,16.90
2022-10-19T20:42:21.387Z,16.92
2022-10-19T20:44:51.108Z,16.95
2022-10-19T20:47:19.188Z,16.87
2022-10-19T20:49:47.300Z,16.90
2022-10-19T20:52:15.416Z,16.85
2022-10-19T20:54:43.458Z,16.87
2022-10-19T20:57:11.745Z,16.91
2022-10-19T20:59:40.040Z,16.90
2022-10-19T21:02:12.028Z,16.88
2022-10-19T21:04:40.289Z,16.86
2022-10-19T21:07:08.448Z,16.81
2022-10-19T21:09:36.719Z,16.79
2022-10-19T21:12:05.008Z,16.75
2022-10-19T21:14:33.206Z,16.71
2022-10-19T21:17:01.782Z,16.64
2022-10-19T21:19:32.419Z,16.61
2022-10-19T21:22:02.929Z,16.57
2022-10-19T21:24:33.480Z,16.57
2022-10-19T21:27:02.570Z,16.52
2022-10-19T21:29:31.173Z,16.48
2022-10-19T21:31:59.294Z,16.40
2022-10-19T21:34:29.957Z,16.40
2022-10-19T21:37:00.285Z,16.40
2022-10-19T21:39:28.554Z,16.43
2022-10-19T21:41:57.138Z,16.38
2022-10-19T21:44:25.234Z,16.32
2022-10-19T21:46:53.687Z,16.39
2022-10-19T21:49:21.959Z,16.39
2022-10-19T21:51:52.119Z,16.44
2022-10-19T21:54:24.868Z,16.37
2022-10-19T21:56:55.104Z,16.31
2022-10-19T21:59:23.353Z,16.29
2022-10-19T22:01:52.149Z,16.13
2022-10-19T22:04:20.339Z,16.18
2022-10-19T22:06:48.795Z,16.08
2022-10-19T22:09:18.916Z,16.17
2022-10-19T22:11:49.394Z,16.24
2022-10-19T22:14:18.949Z,16.13
2022-10-19T22:16:47.485Z,16.17
2022-10-19T22:19:15.836Z,16.15
2022-10-19T22:21:44.575Z,16.24
2022-10-19T22:24:16.395Z,16.27
2022-10-19T22:26:46.571Z,16.22
2022-10-19T22:29:16.312Z,16.27
2022-10-19T22:31:44.516Z,16.26
2022-10-19T22:34:15.658Z,16.23
2022-10-19T22:36:44.727Z,16.17
2022-10-19T22:39:13.581Z,16.21
2022-10-19T22:42:36.813Z,16.10
2022-10-19T22:45:25.548Z,16.09
2022-10-19T22:47:53.737Z,16.03
2022-10-19T22:50:22.081Z,16.10
2022-10-19T22:52:50.194Z,16.11
2022-10-19T22:55:18.515Z,16.17
2022-10-19T22:57:46.600Z,16.06
2022-10-19T23:00:15.825Z,16.15
2022-10-19T23:02:45.389Z,16.05
2022-10-19T23:05:13.861Z,15.98
2022-10-19T23:07:41.967Z,16.07
2022-10-19T23:10:10.377Z,16.13
2022-10-19T23:12:38.708Z,16.05
2022-10-19T23:15:07.882Z,16.18
2022-10-19T23:17:36.183Z,16.09
2022-10-19T23:20:07.417Z,16.25
2022-10-19T23:22:35.593Z,16.10
2022-10-19T23:25:03.651Z,16.19
2022-10-19T23:27:31.807Z,16.22
2022-10-19T23:29:59.831Z,16.20
2022-10-19T23:32:28.321Z,16.27
2022-10-19T23:34:56.605Z,16.26
2022-10-19T23:37:26.504Z,16.28
2022-10-19T23:39:54.642Z,16.19
2022-10-19T23:42:22.874Z,16.28
2022-10-19T23:44:50.967Z,16.27
2022-10-19T23:47:19.096Z,16.32
2022-10-19T23:49:47.382Z,16.36
2022-10-19T23:52:15.549Z,16.33
2022-10-19T23:54:45.257Z,16.35
2022-10-19T23:57:13.631Z,16.38
2022-10-19T23:59:41.664Z,16.33
